Foshan, China
Current Conditions -  °F | °C
As of 12:30 PM on Monday 20 Oct 2014 (Local Time) from ZGGG Reporting Station
Few Clouds Few Clouds  
Wind Chill: 88°   Ceiling: Unl
Heat Index: 90°   Visibility: 4mi
Dew Point: 66°   Wind: 7mph
Humidity: 49%   Direction: 180°S
Pressure: 29.94"   Gusts: NA
Location:  23.03°N, 113.12°E
Report Text: ZGGG 200430Z 18003MPS 140V230 6000 FEW040 31/19 Q1014 NOSIG
Loading
Personal Weather Stations






























Interactive Weather Map
Tropical Storm Tracking
New forecast layout! Learn more

10-Day Weather Forecast

Advertisements
Track Severe Weather on mobile